Time;durP1;ratioP1;P1;durP2;ratioP2;P2;SDS_P1;SDS_P2;PMS_P1;PMS_P2;Temp;Humidity;BMP_temperature;BMP_pressure;BME280_temperature;BME280_humidity;BME280_pressure;Samples;Min_cycle;Max_cycle;Signal;HPM_P1;HPM_P2
2022/05/14 00:00:49;;;;;;;10.90;3.30;;;12.70;95.30;;;;;;5012755;28;20057;-42
2022/05/14 00:03:17;;;;;;;12.60;3.50;;;12.70;95.20;;;;;;5013393;28;20041;-42
2022/05/14 00:05:44;;;;;;;10.95;2.95;;;12.70;95.40;;;;;;5013790;28;20129;-42
2022/05/14 00:08:12;;;;;;;13.90;3.13;;;12.70;95.30;;;;;;5012707;28;20085;-42
2022/05/14 00:13:19;;;;;;;14.10;3.90;;;12.70;95.30;;;;;;5014366;28;20057;-42
2022/05/14 00:15:46;;;;;;;16.75;3.75;;;12.60;95.40;;;;;;5009934;28;20085;-42
2022/05/14 00:18:12;;;;;;;17.92;3.42;;;12.70;95.50;;;;;;5015053;28;20052;-42
2022/05/14 00:20:39;;;;;;;13.80;3.55;;;12.60;95.60;;;;;;5013153;28;20042;-42
2022/05/14 00:23:06;;;;;;;15.02;3.45;;;12.70;95.50;;;;;;5012399;28;20434;-42
2022/05/14 00:25:35;;;;;;;10.98;3.40;;;12.70;95.50;;;;;;5014411;28;20038;-42
2022/05/14 00:28:02;;;;;;;13.13;3.50;;;12.60;95.70;;;;;;5009149;28;20042;-42
2022/05/14 00:30:29;;;;;;;11.27;3.30;;;12.60;95.70;;;;;;5007972;28;20066;-43
2022/05/14 00:32:56;;;;;;;11.35;2.97;;;12.60;95.70;;;;;;5014338;28;20046;-42
2022/05/14 00:35:23;;;;;;;12.07;3.42;;;12.60;95.70;;;;;;5013609;28;20042;-42
2022/05/14 00:37:50;;;;;;;13.98;3.45;;;12.60;95.90;;;;;;5013395;28;21584;-42
2022/05/14 00:40:22;;;;;;;15.40;3.78;;;12.60;96.00;;;;;;5012671;28;20056;-41
2022/05/14 00:42:50;;;;;;;15.68;3.05;;;12.60;96.10;;;;;;5013803;28;20124;-41
2022/05/14 00:45:17;;;;;;;13.43;3.60;;;12.50;96.20;;;;;;5013213;28;20129;-41
2022/05/14 00:47:45;;;;;;;12.98;3.75;;;12.60;96.30;;;;;;5013935;28;20042;-42
2022/05/14 00:50:17;;;;;;;11.52;3.10;;;12.50;96.30;;;;;;5013417;28;20630;-42
2022/05/14 00:52:44;;;;;;;13.50;3.17;;;12.40;96.50;;;;;;5013438;28;20074;-42
2022/05/14 00:55:11;;;;;;;19.85;4.18;;;12.50;96.50;;;;;;5012799;28;20049;-42
2022/05/14 00:57:39;;;;;;;16.10;3.28;;;12.50;96.60;;;;;;5009991;28;20132;-42
2022/05/14 01:00:10;;;;;;;16.05;3.58;;;12.50;96.80;;;;;;5004591;28;20061;-42
2022/05/14 01:02:37;;;;;;;9.55;3.50;;;12.50;97.00;;;;;;5011548;28;20041;-42
2022/05/14 01:05:05;;;;;;;17.00;4.13;;;12.50;97.10;;;;;;5009544;28;20073;-41
2022/05/14 01:07:32;;;;;;;9.68;2.92;;;12.50;97.10;;;;;;5009785;28;20042;-42
2022/05/14 01:10:01;;;;;;;12.15;3.40;;;12.50;97.00;;;;;;5012527;28;20129;-42
2022/05/14 01:12:28;;;;;;;14.90;4.95;;;12.50;96.70;;;;;;5012828;28;20120;-42
2022/05/14 01:14:56;;;;;;;13.07;3.28;;;12.50;96.80;;;;;;5004712;28;20474;-42
2022/05/14 01:17:24;;;;;;;19.52;3.78;;;12.50;96.60;;;;;;5010859;28;20489;-41
2022/05/14 01:19:51;;;;;;;12.95;3.85;;;12.50;96.80;;;;;;5013343;28;20069;-42
2022/05/14 01:22:26;;;;;;;11.82;3.20;;;12.50;96.70;;;;;;5012812;28;20049;-41
2022/05/14 01:27:40;;;;;;;15.30;3.25;;;12.50;96.80;;;;;;5009272;28;20042;-42
2022/05/14 01:30:08;;;;;;;13.23;2.90;;;12.50;96.60;;;;;;5012644;28;20052;-42
2022/05/14 01:32:35;;;;;;;11.27;3.85;;;12.50;96.50;;;;;;5012863;28;20058;-41
2022/05/14 01:35:01;;;;;;;14.75;3.80;;;12.50;96.70;;;;;;5011706;28;20506;-42
2022/05/14 01:37:28;;;;;;;13.05;3.28;;;12.40;96.50;;;;;;5012276;28;20037;-42
2022/05/14 01:39:55;;;;;;;12.55;3.40;;;12.50;96.50;;;;;;5004233;28;20058;-42
2022/05/14 01:42:21;;;;;;;12.70;3.15;;;12.40;96.40;;;;;;5013186;28;20053;-42
2022/05/14 01:44:50;;;;;;;15.27;3.40;;;12.40;96.50;;;;;;5012830;28;20129;-42
2022/05/14 01:47:17;;;;;;;11.32;3.42;;;12.40;96.40;;;;;;5012883;28;20045;-42
2022/05/14 01:49:43;;;;;;;13.45;3.30;;;12.40;96.70;;;;;;5009302;28;20060;-42
2022/05/14 01:52:10;;;;;;;13.50;3.85;;;12.40;97.00;;;;;;5011280;28;20482;-42
2022/05/14 01:54:37;;;;;;;14.90;3.30;;;12.40;96.80;;;;;;5012119;28;20049;-42
2022/05/14 01:57:04;;;;;;;13.77;3.45;;;12.40;96.60;;;;;;5012020;28;20474;-42
2022/05/14 01:59:31;;;;;;;20.05;3.58;;;12.40;96.50;;;;;;5006898;28;20485;-42
2022/05/14 02:02:00;;;;;;;13.27;3.65;;;12.40;96.40;;;;;;5009724;28;20053;-43
2022/05/14 02:04:27;;;;;;;12.80;3.85;;;12.40;96.40;;;;;;5011933;28;20049;-43
2022/05/14 02:06:54;;;;;;;16.00;3.42;;;12.40;96.80;;;;;;5012068;28;20042;-42
2022/05/14 02:09:21;;;;;;;14.90;4.13;;;12.40;97.00;;;;;;5011507;28;20425;-42
2022/05/14 02:11:48;;;;;;;14.38;3.63;;;12.30;97.40;;;;;;5012383;28;20100;-42
2022/05/14 02:14:14;;;;;;;15.43;4.05;;;12.30;97.30;;;;;;5012927;28;20478;-41
2022/05/14 02:16:41;;;;;;;16.63;4.45;;;12.30;97.60;;;;;;5011842;28;20120;-42
2022/05/14 02:19:09;;;;;;;13.35;3.65;;;12.30;97.90;;;;;;5012080;28;20045;-41
2022/05/14 02:21:36;;;;;;;13.05;3.47;;;12.20;97.60;;;;;;5009925;28;20045;-42
2022/05/14 02:24:03;;;;;;;13.45;3.88;;;12.20;97.50;;;;;;5010910;28;20073;-42
2022/05/14 02:26:30;;;;;;;16.17;4.10;;;12.20;97.60;;;;;;5007137;28;20124;-42
2022/05/14 02:28:57;;;;;;;12.43;3.55;;;12.20;97.70;;;;;;5009659;28;20630;-42
2022/05/14 02:31:24;;;;;;;18.42;3.72;;;12.10;97.70;;;;;;5011086;28;20389;-42
2022/05/14 02:33:50;;;;;;;16.33;3.65;;;12.10;97.50;;;;;;5011940;28;20532;-42
2022/05/14 02:36:19;;;;;;;13.27;3.50;;;12.10;97.30;;;;;;5011251;28;20056;-42
2022/05/14 02:38:45;;;;;;;20.40;4.30;;;12.10;97.20;;;;;;5011522;28;20107;-41
2022/05/14 02:41:13;;;;;;;15.73;5.30;;;12.00;97.20;;;;;;5012141;28;20121;-42
2022/05/14 02:43:40;;;;;;;14.00;3.75;;;12.00;97.60;;;;;;5011670;28;20057;-42
2022/05/14 02:46:07;;;;;;;16.65;3.97;;;12.00;97.60;;;;;;5009907;28;20060;-42
2022/05/14 02:48:34;;;;;;;12.15;3.80;;;11.90;97.70;;;;;;5000131;28;20054;-42
2022/05/14 02:51:01;;;;;;;16.40;4.20;;;11.90;97.90;;;;;;5006915;28;20050;-43
2022/05/14 02:53:29;;;;;;;15.65;4.32;;;11.90;97.90;;;;;;5010016;28;20046;-44
2022/05/14 02:55:56;;;;;;;17.23;4.18;;;11.90;98.30;;;;;;5011616;28;20056;-41
2022/05/14 03:01:03;;;;;;;13.07;3.95;;;11.80;98.10;;;;;;5005414;28;20042;-41
2022/05/14 03:03:30;;;;;;;12.15;4.22;;;11.70;97.90;;;;;;5009164;28;20034;-42
2022/05/14 03:05:56;;;;;;;18.92;5.38;;;11.70;97.80;;;;;;5003489;28;20356;-42
2022/05/14 03:08:23;;;;;;;14.40;3.97;;;11.80;98.20;;;;;;5010768;28;20038;-41
2022/05/14 03:10:51;;;;;;;13.82;4.43;;;11.60;98.20;;;;;;5008730;28;20050;-42
2022/05/14 03:13:18;;;;;;;15.43;4.63;;;11.60;98.20;;;;;;5011986;28;20049;-42
2022/05/14 03:15:45;;;;;;;15.10;4.28;;;11.60;98.30;;;;;;5011639;28;20046;-42
2022/05/14 03:18:12;;;;;;;15.38;4.40;;;11.60;98.60;;;;;;5008387;28;20052;-42
2022/05/14 03:20:38;;;;;;;19.05;4.70;;;11.60;98.60;;;;;;5011895;28;20050;-42
2022/05/14 03:23:05;;;;;;;18.42;5.63;;;11.50;98.40;;;;;;5010906;28;20501;-42
2022/05/14 03:25:32;;;;;;;21.80;5.07;;;11.50;98.90;;;;;;5007215;28;20524;-42
2022/05/14 03:28:01;;;;;;;15.43;4.78;;;11.50;99.10;;;;;;5009549;28;20038;-42
2022/05/14 03:30:27;;;;;;;19.85;5.70;;;11.50;99.00;;;;;;5012358;28;20068;-43
2022/05/14 03:32:54;;;;;;;25.20;6.45;;;11.40;99.30;;;;;;5010002;28;20177;-42
2022/05/14 03:35:21;;;;;;;20.23;4.78;;;11.40;99.80;;;;;;5009760;28;20046;-42
2022/05/14 03:37:47;;;;;;;21.42;5.22;;;11.40;99.60;;;;;;5010351;28;20042;-41
2022/05/14 03:40:14;;;;;;;17.83;5.50;;;11.40;99.30;;;;;;5010855;28;20045;-42
2022/05/14 03:42:42;;;;;;;20.48;6.35;;;11.40;99.30;;;;;;5012592;28;20423;-42
2022/05/14 03:45:10;;;;;;;20.85;5.55;;;11.40;99.50;;;;;;5009677;28;20466;-42
2022/05/14 03:47:37;;;;;;;17.42;5.22;;;11.30;99.50;;;;;;5011495;28;20079;-42
2022/05/14 03:50:05;;;;;;;15.43;5.25;;;11.30;99.30;;;;;;5009430;28;20038;-42
2022/05/14 03:52:31;;;;;;;16.70;5.65;;;11.30;99.20;;;;;;5011468;28;20356;-42
2022/05/14 03:54:58;;;;;;;18.55;5.43;;;11.30;99.30;;;;;;5010953;28;20133;-42
2022/05/14 03:57:25;;;;;;;26.42;6.68;;;11.30;99.30;;;;;;5004242;28;20045;-42
2022/05/14 03:59:51;;;;;;;27.83;6.97;;;11.30;99.70;;;;;;5007396;28;20049;-42
2022/05/14 04:02:20;;;;;;;25.98;6.43;;;11.20;99.90;;;;;;5012940;28;20046;-42
2022/05/14 04:04:47;;;;;;;15.93;5.38;;;11.20;99.90;;;;;;5012901;28;20058;-42
2022/05/14 04:07:14;;;;;;;28.33;5.95;;;11.30;99.70;;;;;;5014090;28;20125;-42
2022/05/14 04:09:40;;;;;;;19.77;5.13;;;11.20;99.40;;;;;;5013120;28;20065;-42
2022/05/14 04:12:08;;;;;;;19.42;5.28;;;11.20;99.30;;;;;;5012890;28;20470;-42
2022/05/14 04:14:35;;;;;;;23.58;6.00;;;11.20;99.20;;;;;;5013842;28;20389;-43
2022/05/14 04:17:02;;;;;;;19.85;5.50;;;11.20;99.40;;;;;;5012609;28;20037;-42
2022/05/14 04:19:30;;;;;;;17.45;5.57;;;11.20;99.30;;;;;;5006030;28;20041;-42
2022/05/14 04:21:56;;;;;;;21.63;6.38;;;11.20;99.30;;;;;;5014016;28;20046;-42
2022/05/14 04:24:23;;;;;;;20.85;6.38;;;11.20;99.50;;;;;;5011490;28;20049;-43
2022/05/14 04:26:50;;;;;;;28.48;8.68;;;11.20;99.60;;;;;;5013663;28;20054;-42
2022/05/14 04:29:16;;;;;;;24.60;8.88;;;11.20;99.90;;;;;;5009396;28;20056;-42
2022/05/14 04:31:43;;;;;;;27.83;7.82;;;11.30;99.90;;;;;;5005628;28;20052;-42
2022/05/14 04:34:11;;;;;;;23.13;6.43;;;11.30;99.90;;;;;;5009957;28;20108;-42
2022/05/14 04:36:39;;;;;;;26.83;7.25;;;11.30;99.90;;;;;;5013775;28;20391;-42
2022/05/14 04:39:06;;;;;;;26.38;7.07;;;11.30;99.90;;;;;;5012668;28;20077;-42
2022/05/14 04:41:33;;;;;;;21.20;6.25;;;11.30;99.90;;;;;;5013365;28;20085;-42
2022/05/14 04:44:00;;;;;;;19.77;6.93;;;11.30;99.90;;;;;;5013260;28;20129;-42
2022/05/14 04:46:26;;;;;;;14.50;5.88;;;11.30;99.90;;;;;;5012925;28;20489;-42
2022/05/14 04:48:54;;;;;;;29.48;8.32;;;11.40;99.90;;;;;;5012550;28;20074;-42
2022/05/14 04:51:20;;;;;;;17.80;6.25;;;11.50;99.90;;;;;;5008879;28;20042;-42
2022/05/14 04:53:48;;;;;;;25.60;7.07;;;11.40;99.90;;;;;;5013597;28;20092;-42
2022/05/14 04:56:15;;;;;;;27.25;7.78;;;11.50;99.90;;;;;;5013515;28;20046;-42
2022/05/14 04:58:42;;;;;;;30.92;8.65;;;11.50;99.90;;;;;;5009864;28;20060;-42
2022/05/14 05:01:08;;;;;;;26.00;9.52;;;11.50;99.90;;;;;;5010313;28;20500;-42
2022/05/14 05:03:34;;;;;;;28.90;8.48;;;11.50;99.90;;;;;;5009238;28;20056;-42
2022/05/14 05:06:01;;;;;;;33.33;8.50;;;11.50;99.90;;;;;;5010239;28;20397;-42
2022/05/14 05:08:29;;;;;;;33.60;9.20;;;11.60;99.90;;;;;;5012996;28;20042;-42
2022/05/14 05:10:57;;;;;;;32.78;10.45;;;11.60;99.90;;;;;;5036879;28;20052;-42
2022/05/14 05:13:25;;;;;;;32.70;9.13;;;11.70;99.90;;;;;;5009840;28;20133;-42
2022/05/14 05:15:52;;;;;;;38.22;9.95;;;11.70;99.90;;;;;;5013370;28;20041;-42
2022/05/14 05:18:19;;;;;;;35.30;10.05;;;11.70;99.90;;;;;;5004304;28;20096;-42
2022/05/14 05:20:48;;;;;;;39.25;10.02;;;11.80;99.90;;;;;;5011458;28;20481;-42
2022/05/14 05:23:16;;;;;;;35.70;10.50;;;11.90;99.90;;;;;;5012893;28;20049;-42
2022/05/14 05:25:43;;;;;;;41.85;11.20;;;11.90;99.90;;;;;;5012769;28;20064;-43
2022/05/14 05:28:11;;;;;;;35.17;10.90;;;12.00;99.90;;;;;;5007116;28;20048;-42
2022/05/14 05:30:37;;;;;;;34.65;10.73;;;12.10;99.90;;;;;;4999634;28;20148;-43
2022/05/14 05:33:04;;;;;;;39.88;11.18;;;12.10;99.90;;;;;;5009606;28;20054;-43
2022/05/14 05:35:31;;;;;;;36.33;10.50;;;12.20;99.90;;;;;;5012424;28;20089;-42
2022/05/14 05:37:58;;;;;;;34.88;10.13;;;12.30;99.90;;;;;;5012429;28;20481;-42
2022/05/14 05:40:25;;;;;;;45.42;10.98;;;12.40;99.90;;;;;;5003860;28;20049;-43
2022/05/14 05:42:51;;;;;;;39.83;10.82;;;12.50;99.90;;;;;;5006675;28;20085;-43
2022/05/14 05:45:19;;;;;;;40.70;11.20;;;12.60;99.90;;;;;;5010619;28;20492;-41
2022/05/14 05:47:46;;;;;;;41.35;11.25;;;12.80;99.90;;;;;;5011435;28;20072;-43
2022/05/14 05:50:13;;;;;;;40.17;11.93;;;12.90;99.90;;;;;;5002833;28;20055;-43
2022/05/14 05:52:39;;;;;;;44.50;11.38;;;13.00;99.90;;;;;;5012746;28;20049;-43
2022/05/14 05:57:52;;;;;;;39.28;10.88;;;13.20;99.90;;;;;;5008683;28;20110;-42
2022/05/14 06:00:21;;;;;;;48.03;11.30;;;13.30;99.90;;;;;;5008703;28;20136;-43
2022/05/14 06:02:49;;;;;;;47.75;11.30;;;13.40;99.90;;;;;;5009287;28;20100;-42
2022/05/14 06:05:16;;;;;;;42.72;11.07;;;13.60;99.90;;;;;;5011842;28;20067;-42
2022/05/14 06:07:42;;;;;;;41.42;10.77;;;13.70;99.90;;;;;;5011322;28;20053;-42
2022/05/14 06:10:11;;;;;;;36.85;10.02;;;13.80;99.90;;;;;;5012020;28;20048;-42
2022/05/14 06:12:38;;;;;;;44.13;10.45;;;13.90;99.90;;;;;;5007053;28;20050;-42
2022/05/14 06:15:07;;;;;;;42.05;10.77;;;14.00;99.90;;;;;;5011240;28;20054;-42
2022/05/14 06:17:35;;;;;;;39.53;10.60;;;14.10;99.90;;;;;;5012804;28;20041;-43
2022/05/14 06:20:01;;;;;;;43.92;10.57;;;14.20;99.90;;;;;;5012558;28;20046;-43
2022/05/14 06:22:28;;;;;;;35.03;10.20;;;14.40;99.90;;;;;;5011312;28;20052;-43
2022/05/14 06:24:55;;;;;;;36.85;10.80;;;14.50;99.90;;;;;;5010304;28;20481;-42
2022/05/14 06:27:22;;;;;;;35.45;10.65;;;14.60;99.90;;;;;;5010340;28;20048;-43
2022/05/14 06:29:48;;;;;;;37.15;10.00;;;14.70;99.90;;;;;;5003232;28;20058;-43
2022/05/14 06:32:15;;;;;;;34.05;10.43;;;14.90;99.90;;;;;;5006074;28;20129;-42
2022/05/14 06:34:43;;;;;;;33.80;9.18;;;15.10;99.90;;;;;;5010035;28;20053;-42
2022/05/14 06:37:10;;;;;;;34.03;8.65;;;15.20;99.90;;;;;;5007043;28;20052;-43
2022/05/14 06:39:37;;;;;;;38.63;9.10;;;15.40;99.90;;;;;;5007077;28;20046;-42
2022/05/14 06:42:04;;;;;;;32.63;8.82;;;15.50;99.90;;;;;;5005940;28;20087;-43
2022/05/14 06:44:31;;;;;;;35.13;9.10;;;15.60;99.90;;;;;;5009664;28;20391;-43
2022/05/14 06:46:58;;;;;;;34.10;8.55;;;15.70;99.90;;;;;;5008242;28;20060;-42
2022/05/14 06:49:25;;;;;;;32.05;9.63;;;15.70;99.90;;;;;;5009621;28;20046;-41
2022/05/14 06:51:53;;;;;;;40.20;9.57;;;15.70;99.90;;;;;;5010109;28;20037;-43
2022/05/14 06:54:20;;;;;;;28.17;8.45;;;15.70;99.90;;;;;;5010380;28;20065;-43
2022/05/14 06:56:47;;;;;;;35.53;9.32;;;15.80;99.90;;;;;;5009568;28;20062;-43
2022/05/14 06:59:14;;;;;;;38.72;8.73;;;15.80;99.90;;;;;;5006741;28;20046;-43
2022/05/14 07:01:41;;;;;;;31.35;8.27;;;16.00;99.90;;;;;;5016807;28;20125;-43
2022/05/14 07:06:56;;;;;;;32.35;8.07;;;16.30;99.90;;;;;;5009528;28;20048;-43
2022/05/14 07:09:23;;;;;;;34.83;8.43;;;16.50;99.90;;;;;;4998804;28;20573;-43
2022/05/14 07:11:52;;;;;;;34.25;7.78;;;16.60;99.50;;;;;;5006298;28;20116;-41
2022/05/14 07:14:19;;;;;;;30.55;6.70;;;16.70;98.80;;;;;;5008530;28;20085;-42
2022/05/14 07:16:46;;;;;;;27.95;6.30;;;16.80;98.10;;;;;;5009267;28;20363;-43
2022/05/14 07:19:13;;;;;;;32.58;6.93;;;17.00;97.60;;;;;;5010430;28;20125;-43
2022/05/14 07:21:41;;;;;;;33.15;6.10;;;17.20;96.90;;;;;;5009352;28;20105;-43
2022/05/14 07:24:10;;;;;;;28.55;5.63;;;17.30;96.70;;;;;;5005973;28;20141;-42
2022/05/14 07:26:38;;;;;;;31.88;5.60;;;17.50;95.90;;;;;;5007308;28;20042;-43
2022/05/14 07:29:07;;;;;;;32.35;5.93;;;17.60;95.20;;;;;;5012122;28;20057;-46
2022/05/14 07:31:34;;;;;;;26.20;5.57;;;17.80;94.60;;;;;;5008665;28;20164;-43
2022/05/14 07:34:00;;;;;;;30.13;5.97;;;17.90;94.10;;;;;;5005974;28;20394;-43
2022/05/14 07:36:27;;;;;;;29.52;5.93;;;18.00;93.90;;;;;;5009651;28;20049;-43
2022/05/14 07:38:54;;;;;;;27.02;5.72;;;18.10;93.30;;;;;;5014820;28;20496;-43
2022/05/14 07:41:22;;;;;;;34.92;6.65;;;18.30;93.00;;;;;;5015673;28;20557;-42
2022/05/14 07:43:49;;;;;;;25.73;5.55;;;18.30;92.70;;;;;;5015085;28;20042;-42
2022/05/14 07:46:18;;;;;;;26.67;5.90;;;18.50;92.50;;;;;;5012721;28;20056;-42
2022/05/14 07:48:44;;;;;;;27.05;5.60;;;18.60;92.00;;;;;;5013056;28;20038;-42
2022/05/14 07:51:11;;;;;;;26.23;5.80;;;18.80;91.60;;;;;;5013752;28;20050;-42
2022/05/14 07:53:38;;;;;;;25.10;5.80;;;18.90;91.50;;;;;;5014208;28;20042;-42
2022/05/14 07:56:05;;;;;;;24.08;5.32;;;19.00;91.20;;;;;;5014117;28;20069;-43
2022/05/14 07:58:33;;;;;;;25.08;5.43;;;19.10;90.70;;;;;;5015336;28;20063;-42
2022/05/14 08:01:00;;;;;;;25.63;5.43;;;19.20;90.30;;;;;;5013850;28;20060;-42
2022/05/14 08:03:27;;;;;;;24.00;5.70;;;19.30;90.10;;;;;;5005024;28;20084;-43
2022/05/14 08:05:54;;;;;;;29.20;5.97;;;19.50;90.10;;;;;;5013381;28;20053;-43
2022/05/14 08:08:20;;;;;;;27.85;6.30;;;19.70;89.80;;;;;;5008319;28;20048;-44
2022/05/14 08:10:48;;;;;;;37.47;6.60;;;19.80;89.30;;;;;;5014215;28;20420;-42
2022/05/14 08:13:17;;;;;;;28.77;6.22;;;20.00;89.00;;;;;;5011249;28;20037;-41
2022/05/14 08:15:46;;;;;;;27.95;5.97;;;20.10;88.80;;;;;;5005533;28;20057;-42
2022/05/14 08:18:13;;;;;;;26.45;6.53;;;20.10;88.20;;;;;;5012978;28;20045;-42
2022/05/14 08:20:40;;;;;;;34.55;7.40;;;20.00;87.10;;;;;;5010668;28;20045;-43
2022/05/14 08:25:51;;;;;;;32.25;7.63;;;20.10;87.90;;;;;;5012890;28;20078;-43
2022/05/14 08:28:18;;;;;;;22.27;5.80;;;20.00;86.80;;;;;;5010456;28;20180;-43
2022/05/14 08:30:46;;;;;;;20.83;5.70;;;19.90;88.20;;;;;;5014711;28;20052;-43
2022/05/14 08:33:13;;;;;;;25.73;6.50;;;20.10;87.70;;;;;;5009992;28;20458;-43
2022/05/14 08:35:39;;;;;;;29.75;6.20;;;20.20;86.70;;;;;;5008333;28;20493;-42
2022/05/14 08:38:07;;;;;;;28.02;5.70;;;20.30;86.90;;;;;;5013530;28;20081;-43
2022/05/14 08:40:34;;;;;;;28.85;6.97;;;20.40;86.20;;;;;;5016582;28;20056;-43
2022/05/14 08:43:03;;;;;;;30.67;6.40;;;20.50;86.00;;;;;;5011993;28;20056;-42
2022/05/14 08:45:31;;;;;;;30.60;6.75;;;20.50;85.60;;;;;;5007568;28;20097;-43
2022/05/14 08:48:01;;;;;;;30.70;6.70;;;20.60;85.70;;;;;;5013525;28;20081;-43
2022/05/14 08:50:29;;;;;;;;;;;20.50;84.40;;;;;;5011620;28;20498;-43
2022/05/14 08:53:00;;;;;;;28.85;6.05;;;20.40;84.50;;;;;;5010450;28;20338;-43
2022/05/14 08:55:28;;;;;;;27.40;6.22;;;20.30;85.10;;;;;;5005891;28;20045;-43
2022/05/14 08:57:58;;;;;;;19.35;5.05;;;20.20;85.10;;;;;;5013354;28;20462;-43
2022/05/14 09:00:25;;;;;;;27.55;6.53;;;20.40;85.70;;;;;;5008424;28;20060;-44
2022/05/14 09:02:53;;;;;;;21.45;5.68;;;20.50;84.60;;;;;;5010481;28;20129;-43
2022/05/14 09:05:25;;;;;;;30.02;6.55;;;20.60;83.40;;;;;;5004943;28;20052;-42
2022/05/14 09:07:52;;;;;;;27.45;6.32;;;20.60;83.20;;;;;;5010798;28;20064;-42
2022/05/14 09:10:24;;;;;;;24.80;6.18;;;20.60;84.10;;;;;;5010666;28;20056;-42
2022/05/14 09:12:52;;;;;;;30.52;6.32;;;20.70;82.40;;;;;;5011396;28;20473;-43
2022/05/14 09:15:19;;;;;;;24.45;5.78;;;20.90;82.80;;;;;;5013340;28;20033;-43
2022/05/14 09:17:46;;;;;;;33.63;5.78;;;21.10;82.10;;;;;;5015154;28;20129;-43
2022/05/14 09:20:25;;;;;;;24.13;5.82;;;21.30;80.50;;;;;;5011555;28;20046;-43
2022/05/14 09:22:54;;;;;;;26.95;6.75;;;21.50;79.80;;;;;;5001549;28;20111;-43
2022/05/14 09:25:22;;;;;;;29.23;6.18;;;21.60;79.80;;;;;;5006622;28;20048;-43
2022/05/14 09:27:52;;;;;;;30.85;6.05;;;21.80;79.80;;;;;;5006758;28;20053;-43
2022/05/14 09:30:28;;;;;;;23.45;6.03;;;22.10;78.90;;;;;;5006458;28;20108;-43
2022/05/14 09:32:54;;;;;;;20.30;5.18;;;22.10;77.70;;;;;;5010456;28;20042;-43
2022/05/14 09:35:22;;;;;;;22.80;5.55;;;22.10;78.70;;;;;;5007685;28;20745;-43
2022/05/14 09:37:50;;;;;;;28.67;6.38;;;22.00;77.20;;;;;;5004156;28;20474;-45
2022/05/14 09:40:22;;;;;;;22.75;5.53;;;21.80;76.90;;;;;;5004170;28;20137;-43
2022/05/14 09:42:50;;;;;;;25.52;5.80;;;21.80;75.80;;;;;;5011893;28;20048;-43
2022/05/14 09:45:22;;;;;;;28.02;5.28;;;21.70;76.00;;;;;;5012317;28;20050;-43
2022/05/14 09:47:48;;;;;;;25.23;5.55;;;21.90;75.40;;;;;;5010272;28;20120;-43
2022/05/14 09:50:18;;;;;;;22.10;5.32;;;21.90;75.50;;;;;;5011128;28;20068;-42
2022/05/14 09:52:56;;;;;;;29.25;5.28;;;22.00;75.00;;;;;;5009712;28;20132;-42
2022/05/14 09:55:23;;;;;;;25.55;6.03;;;21.80;74.10;;;;;;5009335;28;20045;-41
2022/05/14 09:57:51;;;;;;;23.17;5.60;;;21.70;74.50;;;;;;5004386;28;20042;-42
2022/05/14 10:00:20;;;;;;;27.23;6.30;;;21.60;74.20;;;;;;5009881;28;20054;-42
2022/05/14 10:03:05;;;;;;;21.88;5.03;;;21.50;74.20;;;;;;5001484;28;20065;-33
2022/05/14 10:05:55;;;;;;;23.10;5.72;;;21.60;74.30;;;;;;5006769;28;20045;-33
2022/05/14 10:08:42;;;;;;;20.63;5.18;;;21.60;74.10;;;;;;5006219;28;20054;-34
2022/05/14 10:11:13;;;;;;;19.45;4.70;;;21.80;73.30;;;;;;5012632;28;20132;-33
2022/05/14 10:13:43;;;;;;;22.05;5.30;;;22.00;72.80;;;;;;5009403;28;20084;-34
2022/05/14 10:16:12;;;;;;;17.65;4.78;;;22.10;71.80;;;;;;5010510;28;20042;-33
2022/05/14 10:19:00;;;;;;;25.25;5.85;;;22.00;72.20;;;;;;5008408;28;20125;-34
2022/05/14 10:21:31;;;;;;;19.48;5.82;;;21.90;72.30;;;;;;4995950;28;20045;-33
2022/05/14 10:27:10;;;;;;;26.90;6.03;;;21.80;72.70;;;;;;5009932;28;20053;-33
2022/05/14 10:29:43;;;;;;;26.48;5.40;;;21.90;72.90;;;;;;5006725;28;20042;-33
2022/05/14 10:32:12;;;;;;;28.13;5.60;;;21.80;72.00;;;;;;5007762;28;20038;-33
2022/05/14 10:34:45;;;;;;;22.70;5.15;;;21.80;72.10;;;;;;5002830;28;20041;-33
2022/05/14 10:37:26;;;;;;;21.67;5.63;;;22.10;71.90;;;;;;5005498;28;20053;-33
2022/05/14 10:39:58;;;;;;;26.17;5.78;;;22.30;70.60;;;;;;5006879;28;20050;-33
2022/05/14 10:42:30;;;;;;;20.75;5.20;;;22.50;69.50;;;;;;5005224;28;20038;-34
2022/05/14 10:45:01;;;;;;;22.45;5.60;;;22.70;68.90;;;;;;5009454;28;20042;-33
2022/05/14 10:47:27;;;;;;;23.77;5.43;;;22.90;68.60;;;;;;5011528;28;20077;-33
2022/05/14 10:49:56;;;;;;;23.42;5.72;;;23.20;68.30;;;;;;5010931;28;20068;-34
2022/05/14 10:52:23;;;;;;;24.17;5.57;;;23.40;67.10;;;;;;5009689;28;20053;-34
2022/05/14 10:54:50;;;;;;;24.63;5.22;;;23.60;67.20;;;;;;5010692;28;20418;-34
2022/05/14 10:57:35;;;;;;;23.50;5.07;;;23.70;67.30;;;;;;5007370;28;20056;-34
2022/05/14 11:00:15;;;;;;;22.40;5.18;;;24.00;65.20;;;;;;4999880;28;20046;-33
2022/05/14 11:02:55;;;;;;;20.50;4.90;;;24.20;65.00;;;;;;5003609;28;20037;-33
2022/05/14 11:05:30;;;;;;;20.67;5.30;;;24.40;64.50;;;;;;5011570;28;20149;-33
2022/05/14 11:08:07;;;;;;;22.75;5.38;;;24.60;63.60;;;;;;5011456;28;20053;-33
2022/05/14 11:10:35;;;;;;;23.33;5.20;;;24.80;62.40;;;;;;5015207;28;20060;-33
2022/05/14 11:13:11;;;;;;;22.25;5.38;;;24.80;63.50;;;;;;5006931;28;20084;-33
2022/05/14 11:15:39;;;;;;;21.52;5.05;;;24.90;60.60;;;;;;5012236;28;20033;-33
2022/05/14 11:18:07;;;;;;;16.92;4.78;;;25.00;60.50;;;;;;5009382;28;20463;-34
2022/05/14 11:20:33;;;;;;;21.80;5.22;;;25.10;59.70;;;;;;5011039;28;20041;-33
2022/05/14 11:23:06;;;;;;;18.67;4.40;;;25.20;60.00;;;;;;5010949;28;20050;-33
2022/05/14 11:25:32;;;;;;;21.70;4.63;;;25.20;59.50;;;;;;5014976;28;20391;-33
2022/05/14 11:28:00;;;;;;;18.80;4.85;;;25.30;59.90;;;;;;5015260;28;20060;-33
2022/05/14 11:30:35;;;;;;;22.40;5.53;;;25.50;58.30;;;;;;5014882;28;20132;-39
2022/05/14 11:33:02;;;;;;;19.52;4.82;;;25.60;58.90;;;;;;5004222;28;20133;-33
2022/05/14 11:35:39;;;;;;;22.05;5.85;;;25.50;58.20;;;;;;5007542;28;20048;-33
2022/05/14 11:38:13;;;;;;;26.05;5.68;;;25.50;58.70;;;;;;5007480;28;20449;-33
2022/05/14 11:40:39;;;;;;;18.92;4.78;;;25.40;58.00;;;;;;5005973;28;20034;-33
2022/05/14 11:43:10;;;;;;;17.73;4.78;;;25.50;57.90;;;;;;5009268;28;20399;-33
2022/05/14 11:45:40;;;;;;;21.13;5.28;;;25.60;57.80;;;;;;5010390;28;20056;-33
2022/05/14 11:48:07;;;;;;;22.35;5.65;;;25.70;57.00;;;;;;5014117;28;20073;-34
2022/05/14 11:50:36;;;;;;;22.50;5.43;;;25.90;57.20;;;;;;5009943;28;20076;-34
2022/05/14 11:53:15;;;;;;;20.48;4.47;;;26.20;56.70;;;;;;5012288;28;20053;-34
2022/05/14 11:55:44;;;;;;;19.30;5.15;;;26.20;55.30;;;;;;5009279;28;20060;-33
2022/05/14 11:58:13;;;;;;;19.92;5.20;;;26.10;54.80;;;;;;5017062;28;20500;-34
2022/05/14 12:00:41;;;;;;;20.33;4.88;;;26.00;55.60;;;;;;5011730;28;20052;-34
2022/05/14 12:03:13;;;;;;;24.73;5.43;;;25.90;56.00;;;;;;5007005;28;20138;-34
2022/05/14 12:05:41;;;;;;;21.98;5.43;;;25.80;55.90;;;;;;5009033;28;20537;-34
2022/05/14 12:08:30;;;;;;;18.50;5.38;;;25.80;56.30;;;;;;5011532;28;20042;-34
2022/05/14 12:11:00;;;;;;;22.67;6.15;;;25.90;54.70;;;;;;5008984;28;20086;-34
2022/05/14 12:13:31;;;;;;;25.17;5.75;;;25.90;55.00;;;;;;5011264;28;20049;-34
2022/05/14 12:16:00;;;;;;;18.25;4.88;;;25.90;55.80;;;;;;5013702;28;21365;-34
2022/05/14 12:18:26;;;;;;;20.75;5.22;;;25.80;55.90;;;;;;5008541;28;20050;-34
2022/05/14 12:20:54;;;;;;;23.67;5.78;;;25.70;56.70;;;;;;5004578;28;20042;-34
2022/05/14 12:23:20;;;;;;;17.58;4.85;;;25.60;55.40;;;;;;5009399;28;20044;-34
2022/05/14 12:25:48;;;;;;;18.88;5.10;;;25.50;56.50;;;;;;5009350;28;20053;-34
2022/05/14 12:28:21;;;;;;;21.80;5.72;;;25.30;56.10;;;;;;5009587;28;20045;-34
2022/05/14 12:33:40;;;;;;;20.20;4.60;;;25.00;55.30;;;;;;5012906;28;20041;-34
2022/05/14 12:36:08;;;;;;;23.15;6.10;;;24.90;55.90;;;;;;5006800;28;20048;-33
2022/05/14 12:38:36;;;;;;;24.55;5.47;;;24.90;57.30;;;;;;5011499;28;20053;-33
2022/05/14 12:41:03;;;;;;;23.63;5.43;;;24.90;57.40;;;;;;5012441;28;20046;-33
2022/05/14 12:43:30;;;;;;;20.38;5.40;;;25.00;56.50;;;;;;5012131;28;20133;-34
2022/05/14 12:46:02;;;;;;;18.48;4.85;;;24.90;56.90;;;;;;5007674;28;20068;-33
2022/05/14 12:48:29;;;;;;;18.40;5.10;;;25.00;56.70;;;;;;5021721;28;20559;-33
2022/05/14 12:50:59;;;;;;;19.70;5.07;;;25.00;56.90;;;;;;5012534;28;20038;-33
2022/05/14 12:53:34;;;;;;;20.77;5.10;;;25.00;55.80;;;;;;5010186;28;20048;-33
2022/05/14 12:56:00;;;;;;;25.55;5.60;;;25.10;55.50;;;;;;5003558;28;20049;-33
2022/05/14 12:58:27;;;;;;;22.13;5.20;;;25.30;55.30;;;;;;5011272;28;20378;-33
2022/05/14 13:00:54;;;;;;;21.73;4.93;;;25.40;54.30;;;;;;5006702;28;20050;-33
2022/05/14 13:03:24;;;;;;;24.55;5.32;;;25.40;54.60;;;;;;5005669;28;21408;-33